Time;durP1;ratioP1;P1;durP2;ratioP2;P2;SDS_P1;SDS_P2;PMS_P1;PMS_P2;Temp;Humidity;BMP_temperature;BMP_pressure;BME280_temperature;BME280_humidity;BME280_pressure;Samples;Min_cycle;Max_cycle;Signal;HPM_P1;HPM_P2
2022/09/19 04:01:54;;;;;;;0.52;0.50;;;9.20;99.90;;;;;;5345587;23;20249;-68
2022/09/19 04:04:21;;;;;;;0.40;0.40;;;9.20;99.90;;;;;;4987271;28;20206;-69
2022/09/19 04:06:48;;;;;;;0.30;0.30;;;9.20;99.90;;;;;;4984432;28;20210;-68
2022/09/19 04:09:15;;;;;;;0.43;0.43;;;9.20;99.90;;;;;;4992696;28;20205;-69
2022/09/19 04:11:41;;;;;;;0.25;0.25;;;9.10;99.90;;;;;;4991489;28;20225;-68
2022/09/19 04:14:08;;;;;;;0.30;0.30;;;9.10;99.90;;;;;;4988961;28;20206;-69
2022/09/19 04:16:35;;;;;;;0.80;0.32;;;9.10;99.90;;;;;;4988808;28;20210;-67
2022/09/19 04:19:10;;;;;;;0.50;0.50;;;9.10;99.90;;;;;;4983000;28;20226;-68
2022/09/19 04:21:38;;;;;;;0.47;0.47;;;9.10;99.90;;;;;;4987638;28;20228;-69
2022/09/19 04:24:06;;;;;;;0.60;0.60;;;9.10;99.90;;;;;;4989411;28;20244;-68
2022/09/19 04:26:32;;;;;;;0.40;0.40;;;9.10;99.90;;;;;;4988559;28;20213;-68
2022/09/19 04:29:02;;;;;;;0.80;0.80;;;9.10;99.90;;;;;;4984679;28;20210;-68
2022/09/19 04:31:35;;;;;;;0.32;0.32;;;9.10;99.90;;;;;;4990013;28;20257;-68
2022/09/19 04:34:03;;;;;;;0.40;0.40;;;9.10;99.90;;;;;;4987671;28;20220;-68
2022/09/19 04:36:31;;;;;;;0.45;0.45;;;9.10;99.90;;;;;;4989708;28;20269;-67
2022/09/19 04:39:02;;;;;;;0.50;0.50;;;9.10;99.90;;;;;;4989097;28;20218;-68
2022/09/19 04:41:32;;;;;;;0.90;0.90;;;9.10;99.90;;;;;;4982562;28;20232;-68
2022/09/19 04:43:59;;;;;;;0.70;0.70;;;9.10;99.90;;;;;;4986159;28;20207;-68
2022/09/19 04:46:25;;;;;;;0.95;0.55;;;9.10;99.90;;;;;;4985007;28;20214;-68
2022/09/19 04:48:54;;;;;;;0.70;0.70;;;9.10;99.90;;;;;;4978878;28;20218;-68
2022/09/19 04:51:23;;;;;;;1.38;1.23;;;9.10;99.90;;;;;;4987412;28;20234;-68
2022/09/19 04:53:50;;;;;;;0.50;0.50;;;9.00;99.90;;;;;;4974411;28;20226;-68
2022/09/19 04:56:18;;;;;;;1.08;1.08;;;9.00;99.90;;;;;;4982909;28;20574;-68
2022/09/19 04:58:45;;;;;;;0.35;0.35;;;9.00;99.90;;;;;;4984346;28;20229;-69
2022/09/19 05:01:14;;;;;;;0.68;0.68;;;9.00;99.90;;;;;;4986030;28;20237;-68
2022/09/19 05:03:43;;;;;;;0.35;0.35;;;9.00;99.90;;;;;;4976834;28;20233;-68
2022/09/19 05:06:10;;;;;;;0.75;0.75;;;9.00;99.90;;;;;;4986620;28;20236;-68
2022/09/19 05:08:40;;;;;;;7.10;1.15;;;9.10;99.90;;;;;;4978677;28;20217;-68
2022/09/19 05:11:08;;;;;;;0.32;0.32;;;9.10;99.90;;;;;;4984104;28;20241;-68
2022/09/19 05:13:38;;;;;;;1.33;1.23;;;9.10;99.90;;;;;;4988772;28;20209;-68
2022/09/19 05:16:06;;;;;;;0.80;0.80;;;9.20;99.90;;;;;;4982269;28;20244;-68
2022/09/19 05:18:35;;;;;;;0.30;0.30;;;9.20;99.90;;;;;;4981716;28;20229;-69
2022/09/19 05:21:05;;;;;;;0.88;0.60;;;9.30;99.90;;;;;;4990296;28;20312;-69
2022/09/19 05:23:32;;;;;;;0.28;0.28;;;9.40;99.90;;;;;;4985031;28;20314;-69
2022/09/19 05:26:04;;;;;;;0.90;0.90;;;9.40;99.90;;;;;;4990223;28;20210;-68
2022/09/19 05:28:30;;;;;;;0.95;0.65;;;9.50;99.90;;;;;;4980117;28;20210;-69
2022/09/19 05:30:57;;;;;;;6.13;0.65;;;9.50;99.90;;;;;;4987698;28;20229;-68
2022/09/19 05:33:26;;;;;;;1.55;0.75;;;9.50;99.90;;;;;;4987774;28;20289;-69
2022/09/19 05:35:53;;;;;;;0.45;0.45;;;9.60;99.90;;;;;;4982857;28;20217;-69
2022/09/19 05:38:19;;;;;;;0.63;0.63;;;9.60;99.90;;;;;;4984371;28;20659;-69
2022/09/19 05:40:46;;;;;;;0.50;0.50;;;9.70;99.90;;;;;;4985783;28;20222;-68
2022/09/19 05:43:14;;;;;;;0.40;0.40;;;9.70;99.90;;;;;;4981967;28;20217;-69
2022/09/19 05:45:41;;;;;;;2.75;0.60;;;9.80;99.90;;;;;;4984113;28;20230;-69
2022/09/19 05:48:10;;;;;;;1.27;0.45;;;9.80;99.90;;;;;;4988052;28;20213;-69
2022/09/19 05:50:37;;;;;;;0.55;0.55;;;9.80;99.90;;;;;;4985284;28;20590;-68
2022/09/19 05:55:48;;;;;;;0.30;0.30;;;9.90;99.90;;;;;;4988748;28;20245;-69
2022/09/19 05:58:17;;;;;;;3.90;0.45;;;9.90;99.90;;;;;;4984160;28;20210;-69
2022/09/19 06:00:44;;;;;;;0.30;0.30;;;10.00;99.90;;;;;;4984372;28;20238;-68
2022/09/19 06:03:16;;;;;;;0.25;0.25;;;10.10;99.90;;;;;;4988625;28;20242;-68
2022/09/19 06:05:45;;;;;;;0.35;0.35;;;10.10;99.90;;;;;;4984650;28;20214;-68
2022/09/19 06:08:12;;;;;;;0.40;0.40;;;10.10;99.90;;;;;;4979606;28;20211;-68
2022/09/19 06:10:41;;;;;;;0.30;0.30;;;10.20;99.90;;;;;;4989473;28;20230;-69
2022/09/19 06:13:09;;;;;;;1.00;0.30;;;10.30;99.90;;;;;;4980651;28;20227;-67
2022/09/19 06:15:37;;;;;;;1.27;0.35;;;10.30;99.90;;;;;;4986119;28;20208;-68
2022/09/19 06:18:05;;;;;;;0.35;0.35;;;10.40;99.90;;;;;;4983797;28;20210;-68
2022/09/19 06:20:31;;;;;;;0.52;0.52;;;10.40;99.90;;;;;;4983332;28;20234;-68
2022/09/19 06:23:00;;;;;;;2.22;0.63;;;10.50;99.90;;;;;;4986517;28;20207;-66
2022/09/19 06:25:28;;;;;;;0.70;0.70;;;10.50;99.90;;;;;;4986837;28;20681;-67
2022/09/19 06:27:55;;;;;;;0.77;0.70;;;10.60;99.90;;;;;;4983015;28;20211;-66
2022/09/19 06:30:22;;;;;;;0.95;0.50;;;10.70;99.90;;;;;;4977489;28;20720;-66
2022/09/19 06:32:51;;;;;;;3.05;0.60;;;10.70;99.90;;;;;;4984995;28;20664;-67
2022/09/19 06:35:18;;;;;;;2.20;0.68;;;10.80;99.90;;;;;;4986399;28;20226;-68
2022/09/19 06:37:45;;;;;;;0.30;0.30;;;10.90;99.90;;;;;;4986005;28;20221;-67
2022/09/19 06:40:12;;;;;;;1.75;0.40;;;10.90;99.90;;;;;;4986189;28;20367;-67
2022/09/19 06:42:38;;;;;;;0.73;0.63;;;11.00;99.90;;;;;;4974345;28;20236;-67
2022/09/19 06:45:07;;;;;;;1.33;0.82;;;11.10;99.90;;;;;;4988567;28;20209;-67
2022/09/19 06:47:35;;;;;;;0.20;0.20;;;11.10;99.90;;;;;;4981053;28;20203;-68
2022/09/19 06:50:04;;;;;;;0.65;0.65;;;11.20;99.90;;;;;;4989835;28;20725;-67
2022/09/19 06:52:31;;;;;;;3.13;0.82;;;11.20;99.90;;;;;;4981214;28;20227;-66
2022/09/19 06:54:58;;;;;;;2.65;0.75;;;11.30;99.90;;;;;;4988776;28;20230;-67
2022/09/19 06:57:25;;;;;;;0.30;0.30;;;11.30;99.90;;;;;;4982172;28;20214;-67
2022/09/19 06:59:52;;;;;;;0.30;0.30;;;11.40;99.90;;;;;;4976783;28;20214;-67
2022/09/19 07:02:21;;;;;;;0.30;0.30;;;11.50;99.90;;;;;;4980731;28;20322;-67
2022/09/19 07:04:47;;;;;;;4.53;0.50;;;11.60;99.90;;;;;;4978466;28;20725;-67
2022/09/19 07:07:15;;;;;;;1.20;0.40;;;11.80;99.90;;;;;;4988211;28;20232;-68
2022/09/19 07:09:42;;;;;;;1.27;0.40;;;11.90;99.90;;;;;;4987073;28;20285;-68
2022/09/19 07:12:10;;;;;;;0.30;0.30;;;12.10;99.90;;;;;;4980547;28;20278;-68
2022/09/19 07:14:37;;;;;;;1.45;0.25;;;12.20;99.90;;;;;;4984519;28;20643;-68
2022/09/19 07:17:04;;;;;;;0.93;0.53;;;12.20;99.90;;;;;;4980565;28;20209;-68
2022/09/19 07:19:31;;;;;;;0.75;0.63;;;12.20;99.90;;;;;;4982555;28;20473;-67
2022/09/19 07:21:58;;;;;;;2.65;0.30;;;12.20;99.90;;;;;;4976984;28;20252;-68
2022/09/19 07:24:26;;;;;;;2.25;0.50;;;12.20;99.90;;;;;;4989749;28;20671;-68
2022/09/19 07:26:53;;;;;;;0.68;0.68;;;12.20;99.90;;;;;;4989921;28;20317;-68
2022/09/19 07:29:20;;;;;;;0.50;0.50;;;12.20;99.90;;;;;;4983392;28;20213;-67
2022/09/19 07:31:47;;;;;;;0.60;0.60;;;12.20;99.90;;;;;;4990485;28;20343;-68
2022/09/19 07:34:14;;;;;;;1.65;0.70;;;12.20;99.90;;;;;;4978319;28;20235;-67
2022/09/19 07:36:40;;;;;;;0.50;0.50;;;12.30;99.90;;;;;;4982566;28;20214;-68
2022/09/19 07:39:09;;;;;;;0.68;0.60;;;12.30;99.90;;;;;;4989536;28;20259;-68
2022/09/19 07:41:37;;;;;;;0.30;0.30;;;12.30;99.90;;;;;;4991999;28;20240;-67
2022/09/19 07:44:04;;;;;;;6.82;0.75;;;12.40;99.90;;;;;;4984393;28;20207;-67
2022/09/19 07:46:31;;;;;;;0.43;0.43;;;12.50;99.90;;;;;;4987707;28;20209;-67
2022/09/19 07:48:58;;;;;;;3.80;0.80;;;12.50;99.90;;;;;;4983534;28;20718;-68
2022/09/19 07:51:25;;;;;;;0.63;0.63;;;12.60;99.90;;;;;;4979802;28;20236;-67
2022/09/19 07:53:52;;;;;;;8.80;0.93;;;12.70;99.90;;;;;;4979555;28;20784;-68
2022/09/19 07:56:18;;;;;;;3.40;1.10;;;12.70;99.90;;;;;;4986509;28;20580;-67
2022/09/19 07:58:46;;;;;;;1.77;1.05;;;12.70;99.90;;;;;;4992422;28;20212;-68
2022/09/19 08:01:13;;;;;;;1.67;0.30;;;12.80;99.90;;;;;;4983304;28;20241;-68
2022/09/19 08:03:40;;;;;;;0.65;0.50;;;12.90;99.90;;;;;;4988021;28;20202;-68
2022/09/19 08:06:06;;;;;;;1.45;0.60;;;12.90;99.90;;;;;;4985646;28;20206;-68
2022/09/19 08:08:35;;;;;;;0.65;0.50;;;13.00;99.90;;;;;;4982123;28;20206;-68
2022/09/19 08:11:02;;;;;;;4.10;0.50;;;13.00;99.90;;;;;;4984238;28;20238;-69
2022/09/19 08:13:30;;;;;;;5.83;0.90;;;13.10;99.90;;;;;;4987132;28;20221;-69
2022/09/19 08:15:59;;;;;;;0.50;0.50;;;13.20;99.90;;;;;;4984797;28;20516;-69
2022/09/19 08:18:27;;;;;;;4.53;0.60;;;13.30;99.90;;;;;;4981352;28;20497;-69
2022/09/19 08:20:54;;;;;;;0.35;0.30;;;13.30;99.90;;;;;;4990119;28;20576;-69
2022/09/19 08:23:21;;;;;;;1.67;0.65;;;13.40;99.90;;;;;;4981438;28;20210;-69
2022/09/19 08:25:51;;;;;;;0.83;0.67;;;13.50;99.90;;;;;;4987061;28;20251;-68
2022/09/19 08:28:20;;;;;;;9.77;1.17;;;13.60;99.90;;;;;;4978999;28;20560;-69
2022/09/19 08:30:47;;;;;;;6.53;1.20;;;13.70;99.90;;;;;;4986446;28;21059;-69
2022/09/19 08:33:16;;;;;;;0.57;0.57;;;13.90;99.90;;;;;;4986371;28;20535;-69
2022/09/19 08:35:43;;;;;;;1.47;0.77;;;14.20;99.90;;;;;;4990722;28;20477;-68
2022/09/19 08:38:12;;;;;;;3.70;1.27;;;14.30;99.90;;;;;;4990902;28;20490;-69
2022/09/19 08:40:57;;;;;;;1.10;0.57;;;14.40;99.90;;;;;;4982779;28;20506;-68
2022/09/19 08:43:29;;;;;;;1.50;0.50;;;14.40;99.90;;;;;;4984791;28;20467;-69
2022/09/19 08:46:07;;;;;;;2.03;0.40;;;14.50;99.90;;;;;;4985136;28;20474;-69
2022/09/19 08:48:46;;;;;;;2.30;0.37;;;14.60;99.90;;;;;;4987234;28;20474;-69
2022/09/19 08:51:19;;;;;;;4.00;0.97;;;14.60;99.90;;;;;;4979393;28;20490;-68
2022/09/19 08:53:51;;;;;;;0.50;0.50;;;14.70;99.90;;;;;;4976567;28;20495;-68
2022/09/19 08:56:19;;;;;;;1.33;0.67;;;14.80;99.90;;;;;;4985830;28;20471;-67
2022/09/19 08:58:50;;;;;;;3.93;1.07;;;14.70;99.90;;;;;;4984658;28;20956;-67
2022/09/19 09:01:19;;;;;;;2.10;1.03;;;14.70;99.90;;;;;;4976646;28;20514;-68
2022/09/19 09:03:55;;;;;;;4.53;0.90;;;14.90;99.90;;;;;;4986482;28;20464;-67
2022/09/19 09:06:33;;;;;;;3.30;0.40;;;15.00;99.90;;;;;;4986136;28;20470;-67
2022/09/19 09:09:06;;;;;;;1.63;0.50;;;15.10;99.90;;;;;;4991423;28;20465;-67
2022/09/19 09:11:38;;;;;;;8.77;0.90;;;15.00;99.90;;;;;;4988234;28;20496;-68
2022/09/19 09:14:11;;;;;;;0.40;0.40;;;15.00;99.90;;;;;;4987103;28;20529;-67
2022/09/19 09:16:49;;;;;;;1.20;0.77;;;15.00;99.90;;;;;;4973163;28;20810;-67
2022/09/19 09:19:36;;;;;;;3.80;0.67;;;15.00;99.90;;;;;;4981679;28;20807;-67
2022/09/19 09:22:16;;;;;;;3.40;1.10;;;15.10;99.90;;;;;;4986896;28;20487;-67
2022/09/19 09:24:50;;;;;;;3.30;1.27;;;15.20;99.90;;;;;;4989350;28;20473;-67
2022/09/19 09:27:20;;;;;;;0.50;0.50;;;15.30;99.90;;;;;;4988026;28;20469;-68
2022/09/19 09:29:50;;;;;;;1.20;0.77;;;15.30;99.90;;;;;;4982359;28;20559;-68
2022/09/19 09:32:20;;;;;;;5.17;0.50;;;15.20;99.90;;;;;;4983881;28;21019;-68
2022/09/19 09:34:56;;;;;;;1.17;0.50;;;15.20;99.90;;;;;;4982950;28;20586;-68
2022/09/19 09:37:26;;;;;;;7.30;0.50;;;15.20;99.90;;;;;;4987067;28;20481;-68
2022/09/19 09:40:00;;;;;;;0.47;0.47;;;15.40;99.90;;;;;;4983787;28;20474;-69
2022/09/19 09:42:33;;;;;;;0.20;0.20;;;15.50;99.90;;;;;;4987223;28;20496;-69
2022/09/19 09:45:06;;;;;;;1.37;0.37;;;15.60;99.90;;;;;;4982551;28;20472;-68
2022/09/19 09:47:45;;;;;;;4.30;0.70;;;15.80;99.90;;;;;;4983631;28;21018;-69
2022/09/19 09:50:48;;;;;;;2.23;0.47;;;16.00;99.90;;;;;;4977937;28;20467;-69
2022/09/19 09:53:26;;;;;;;0.43;0.43;;;16.10;99.90;;;;;;4987026;28;20496;-69
2022/09/19 09:56:15;;;;;;;0.30;0.30;;;16.20;99.90;;;;;;4991962;28;20471;-69
2022/09/19 09:58:55;;;;;;;2.03;0.77;;;16.40;99.90;;;;;;4989005;28;20480;-69
2022/09/19 10:04:25;;;;;;;1.90;0.93;;;16.70;99.90;;;;;;4984699;28;21000;-69
2022/09/19 10:07:09;;;;;;;2.43;0.60;;;16.60;99.90;;;;;;4981267;28;20542;-69
2022/09/19 10:09:41;;;;;;;1.70;1.00;;;16.50;99.90;;;;;;4982652;28;20463;-67
2022/09/19 10:12:21;;;;;;;0.60;0.60;;;16.50;99.90;;;;;;4986861;28;20566;-67
2022/09/19 10:14:47;;;;;;;0.70;0.40;;;16.60;99.90;;;;;;4981106;28;20501;-68
2022/09/19 10:17:19;;;;;;;0.60;0.60;;;16.50;99.90;;;;;;4990159;28;20463;-68
2022/09/19 10:19:49;;;;;;;2.50;0.77;;;16.60;99.90;;;;;;4983452;28;20517;-68
2022/09/19 10:22:18;;;;;;;3.97;0.77;;;16.90;99.90;;;;;;4998269;28;20493;-67
2022/09/19 10:24:50;;;;;;;4.03;0.93;;;17.00;99.90;;;;;;4997188;28;20571;-67
2022/09/19 10:27:23;;;;;;;0.37;0.37;;;17.00;99.90;;;;;;4988011;28;20473;-67
2022/09/19 10:29:53;;;;;;;2.47;1.37;;;16.90;99.90;;;;;;4995064;28;20472;-67
2022/09/19 10:32:24;;;;;;;0.67;0.60;;;16.90;99.90;;;;;;4994416;28;20514;-68
2022/09/19 10:34:51;;;;;;;1.23;1.10;;;16.70;99.90;;;;;;4998920;28;20854;-68
2022/09/19 10:37:21;;;;;;;2.00;1.57;;;16.40;99.90;;;;;;4998024;28;20474;-68
2022/09/19 10:39:48;;;;;;;0.33;0.33;;;15.90;99.90;;;;;;4988428;28;20974;-68
2022/09/19 10:42:36;;;;;;;0.37;0.37;;;15.50;99.90;;;;;;4980206;28;20491;-69
2022/09/19 10:45:25;;;;;;;0.50;0.40;;;15.30;99.90;;;;;;4982288;28;20561;-68
2022/09/19 10:47:54;;;;;;;3.30;1.07;;;15.10;99.90;;;;;;4983441;28;20470;-69
2022/09/19 10:50:21;;;;;;;2.30;0.60;;;15.10;99.90;;;;;;4986381;28;20561;-68
2022/09/19 10:52:52;;;;;;;6.50;1.00;;;15.20;99.90;;;;;;4984426;28;20482;-68
2022/09/19 10:55:21;;;;;;;0.70;0.70;;;15.30;99.90;;;;;;4985404;28;20839;-68
2022/09/19 10:57:59;;;;;;;1.33;0.50;;;15.40;99.90;;;;;;4984597;28;21004;-69
2022/09/19 11:00:28;;;;;;;3.20;1.17;;;15.50;99.90;;;;;;4981261;28;20525;-69
2022/09/19 11:03:05;;;;;;;0.70;0.70;;;15.70;99.90;;;;;;4989814;28;20848;-69
2022/09/19 11:05:34;;;;;;;3.23;0.60;;;16.00;99.90;;;;;;4990647;28;20464;-68
2022/09/19 11:08:05;;;;;;;0.67;0.67;;;16.20;99.90;;;;;;4988094;28;20836;-69
2022/09/19 11:10:40;;;;;;;0.57;0.57;;;16.40;99.90;;;;;;4985775;28;21012;-69
2022/09/19 11:13:11;;;;;;;4.53;0.63;;;16.40;99.90;;;;;;4981894;28;20506;-67
2022/09/19 11:15:51;;;;;;;3.80;1.43;;;16.50;99.90;;;;;;4983055;28;20500;-68
2022/09/19 11:18:27;;;;;;;1.27;0.53;;;16.30;99.90;;;;;;4977378;28;20467;-69
2022/09/19 11:21:05;;;;;;;2.27;0.87;;;16.30;99.90;;;;;;4988374;28;20503;-68
2022/09/19 11:23:56;;;;;;;1.03;0.93;;;16.20;99.90;;;;;;4985307;28;20520;-68
2022/09/19 11:26:34;;;;;;;0.50;0.50;;;16.10;99.90;;;;;;4985188;28;20470;-68
2022/09/19 11:29:17;;;;;;;1.17;0.30;;;16.10;99.90;;;;;;4988611;28;20483;-69
2022/09/19 11:32:03;;;;;;;0.30;0.30;;;16.10;99.90;;;;;;4989284;28;21019;-68
2022/09/19 11:34:36;;;;;;;1.23;1.00;;;16.10;99.90;;;;;;4986331;28;20522;-68
2022/09/19 11:37:11;;;;;;;1.10;1.00;;;16.10;99.90;;;;;;4989434;28;20506;-68
2022/09/19 11:39:54;;;;;;;2.60;2.40;;;16.10;99.90;;;;;;4984034;28;20479;-68
2022/09/19 11:42:31;;;;;;;4.50;0.93;;;16.10;99.90;;;;;;4987987;28;20494;-69
2022/09/19 11:45:09;;;;;;;0.80;0.60;;;16.00;99.90;;;;;;4985520;28;20551;-69
2022/09/19 11:48:05;;;;;;;2.57;0.53;;;15.80;99.90;;;;;;4988336;28;20916;-68
2022/09/19 11:50:56;;;;;;;1.33;0.43;;;15.70;99.90;;;;;;4985425;28;21134;-67
2022/09/19 11:53:46;;;;;;;0.97;0.30;;;15.60;99.90;;;;;;4985127;28;20502;-68
2022/09/19 11:56:35;;;;;;;2.23;0.40;;;15.50;99.90;;;;;;4977043;28;20474;-68
2022/09/19 11:59:14;;;;;;;0.43;0.43;;;15.50;99.90;;;;;;4982297;28;20478;-68
2022/09/19 12:01:54;;;;;;;1.63;0.33;;;15.40;99.90;;;;;;4982276;28;20509;-68
2022/09/19 12:04:35;;;;;;;0.60;0.60;;;15.40;99.90;;;;;;4989925;28;20463;-68
2022/09/19 12:07:21;;;;;;;1.00;0.60;;;15.40;99.90;;;;;;4986390;28;20459;-68
2022/09/19 12:09:52;;;;;;;1.93;1.23;;;15.50;99.90;;;;;;4989887;28;20867;-68
2022/09/19 12:12:24;;;;;;;3.40;0.63;;;15.60;99.90;;;;;;4981744;28;20491;-70
2022/09/19 12:14:55;;;;;;;0.60;0.60;;;15.50;99.90;;;;;;4985989;28;20569;-68
2022/09/19 12:17:27;;;;;;;0.20;0.20;;;15.50;99.90;;;;;;4983852;28;20561;-65
2022/09/19 12:19:59;;;;;;;3.57;0.53;;;15.50;99.90;;;;;;4989185;28;20469;-67
2022/09/19 12:22:29;;;;;;;1.93;0.53;;;15.60;99.90;;;;;;4988794;28;20999;-67
2022/09/19 12:25:01;;;;;;;2.33;0.67;;;15.70;99.90;;;;;;4989315;28;20827;-68
2022/09/19 12:27:35;;;;;;;1.87;0.90;;;15.80;99.90;;;;;;4985761;28;20491;-69
2022/09/19 12:30:06;;;;;;;0.20;0.20;;;15.80;99.90;;;;;;4982275;28;20550;-67
2022/09/19 12:32:41;;;;;;;9.60;0.87;;;15.70;99.90;;;;;;4982707;28;20587;-69
2022/09/19 12:35:16;;;;;;;0.20;0.20;;;15.70;99.90;;;;;;4981717;28;20489;-68
2022/09/19 12:37:50;;;;;;;4.50;0.70;;;15.80;99.90;;;;;;4981309;28;20958;-69
2022/09/19 12:40:26;;;;;;;0.20;0.20;;;15.90;99.90;;;;;;4980199;28;20463;-67
2022/09/19 12:43:07;;;;;;;1.20;0.30;;;16.00;99.90;;;;;;4976910;28;20470;-67
2022/09/19 12:45:41;;;;;;;0.80;0.53;;;16.10;99.90;;;;;;4983275;28;20467;-68
2022/09/19 12:48:15;;;;;;;7.70;0.50;;;16.30;99.90;;;;;;4983114;28;20471;-68
2022/09/19 12:50:44;;;;;;;2.10;0.30;;;16.50;99.90;;;;;;4983224;28;20502;-68
2022/09/19 12:53:22;;;;;;;4.43;0.70;;;16.50;99.90;;;;;;4990116;28;20904;-68
2022/09/19 12:55:58;;;;;;;4.00;0.40;;;16.50;99.90;;;;;;4979847;28;20475;-68
2022/09/19 12:58:31;;;;;;;2.93;0.40;;;16.40;99.90;;;;;;4979998;28;20465;-68
2022/09/19 13:01:14;;;;;;;0.20;0.20;;;16.30;99.90;;;;;;4987290;28;20575;-68
2022/09/19 13:03:47;;;;;;;0.40;0.40;;;16.20;99.90;;;;;;4979344;28;20465;-68
2022/09/19 13:06:18;;;;;;;0.87;0.30;;;16.10;99.90;;;;;;4977535;28;20501;-68
2022/09/19 13:08:50;;;;;;;3.30;0.57;;;15.90;99.90;;;;;;4989163;28;20498;-68
2022/09/19 13:11:21;;;;;;;0.30;0.27;;;15.70;99.90;;;;;;4982576;28;20493;-68
2022/09/19 13:13:53;;;;;;;0.30;0.30;;;15.50;99.90;;;;;;4982453;28;20500;-68
2022/09/19 13:16:24;;;;;;;0.27;0.27;;;15.20;99.90;;;;;;4982747;28;20474;-68
2022/09/19 13:24:37;;;;;;;1.13;0.70;;;14.40;99.90;;;;;;4986122;28;20824;-68
2022/09/19 13:27:04;;;;;;;2.53;0.60;;;14.20;99.90;;;;;;4987975;28;20463;-69
2022/09/19 13:29:47;;;;;;;1.07;0.70;;;13.90;99.90;;;;;;4987388;28;20499;-69
2022/09/19 13:32:37;;;;;;;0.40;0.40;;;13.60;99.90;;;;;;4988825;28;20551;-68
2022/09/19 13:35:20;;;;;;;0.35;0.35;;;13.00;99.90;;;;;;4986775;28;20550;-68
2022/09/19 13:37:53;;;;;;;0.20;0.20;;;12.40;99.90;;;;;;4984753;28;20209;-70
2022/09/19 13:40:33;;;;;;;0.63;0.25;;;12.00;99.90;;;;;;4987034;28;20209;-68
2022/09/19 13:43:06;;;;;;;0.50;0.40;;;11.80;99.90;;;;;;4986597;28;20223;-68
2022/09/19 13:45:42;;;;;;;2.40;1.20;;;11.70;99.90;;;;;;4987689;28;20216;-68
2022/09/19 13:48:20;;;;;;;0.52;0.52;;;11.80;99.90;;;;;;4981242;28;20224;-69
2022/09/19 13:50:54;;;;;;;0.73;0.70;;;11.70;99.90;;;;;;4979643;28;20259;-69
2022/09/19 13:53:33;;;;;;;1.98;1.98;;;11.60;99.90;;;;;;4981083;28;20209;-68
2022/09/19 13:56:02;;;;;;;1.75;0.47;;;11.60;99.90;;;;;;4983326;28;20213;-68
2022/09/19 13:58:32;;;;;;;0.60;0.57;;;11.50;99.90;;;;;;4986265;28;20219;-69
2022/09/19 14:01:35;;;;;;;3.85;0.60;;;11.50;99.90;;;;;;4985242;28;20652;-70
2022/09/19 14:04:52;;;;;;;1.40;1.40;;;11.50;99.90;;;;;;4974672;28;20233;-69
2022/09/19 14:06:58;;;;;;;2.33;2.22;;;11.60;99.90;;;;;;4986461;28;20300;-68
2022/09/19 14:09:38;;;;;;;5.57;0.70;;;11.70;99.90;;;;;;4987173;28;20634;-68
2022/09/19 14:12:39;;;;;;;1.00;0.57;;;11.80;99.90;;;;;;4986819;28;20316;-69
2022/09/19 14:15:44;;;;;;;1.75;1.00;;;12.00;99.90;;;;;;4980510;28;20960;-69
2022/09/19 14:18:43;;;;;;;0.85;0.30;;;12.10;99.90;;;;;;4981102;28;20212;-69
2022/09/19 14:21:11;;;;;;;1.50;0.45;;;12.20;99.90;;;;;;4988674;28;20234;-69
2022/09/19 14:23:41;;;;;;;3.50;1.38;;;12.30;99.90;;;;;;4984150;28;20205;-67
2022/09/19 14:26:34;;;;;;;4.10;1.27;;;12.20;99.90;;;;;;4988679;28;20232;-67
2022/09/19 14:29:17;;;;;;;1.20;1.10;;;12.20;99.90;;;;;;4989258;28;20678;-68
2022/09/19 14:31:55;;;;;;;0.95;0.95;;;12.20;99.90;;;;;;4978927;28;20233;-69
2022/09/19 14:34:41;;;;;;;0.30;0.30;;;12.10;99.90;;;;;;4984893;28;20236;-68
2022/09/19 14:37:36;;;;;;;2.22;0.40;;;12.10;99.90;;;;;;4988665;28;20212;-67
2022/09/19 14:40:36;;;;;;;0.25;0.25;;;12.00;99.90;;;;;;4977976;28;20313;-68
2022/09/19 14:43:21;;;;;;;0.30;0.30;;;12.00;99.90;;;;;;4982890;28;20209;-68
2022/09/19 14:46:12;;;;;;;1.05;0.90;;;12.00;99.90;;;;;;4986728;28;20620;-68
2022/09/19 14:48:47;;;;;;;2.30;0.95;;;12.00;99.90;;;;;;4987229;28;20528;-68
2022/09/19 14:51:30;;;;;;;0.50;0.50;;;11.90;99.90;;;;;;4989669;28;20263;-68
2022/09/19 14:54:04;;;;;;;1.23;1.23;;;11.90;99.90;;;;;;4983640;28;20340;-68
2022/09/19 14:56:31;;;;;;;1.05;0.90;;;11.90;99.90;;;;;;4991160;28;20578;-68
2022/09/19 14:59:00;;;;;;;1.42;1.42;;;11.90;99.90;;;;;;4983420;28;20278;-68
2022/09/19 15:01:30;;;;;;;1.60;1.15;;;12.00;99.90;;;;;;4986445;28;20282;-68
2022/09/19 15:03:59;;;;;;;0.68;0.68;;;12.00;99.90;;;;;;4987798;28;20237;-68
2022/09/19 15:06:31;;;;;;;0.52;0.52;;;12.10;99.90;;;;;;4989576;28;20221;-68
2022/09/19 15:08:59;;;;;;;0.50;0.50;;;12.10;99.90;;;;;;4983590;28;20643;-69
2022/09/19 15:11:27;;;;;;;3.42;0.60;;;12.20;99.90;;;;;;4988956;28;20249;-68
2022/09/19 15:13:55;;;;;;;0.85;0.80;;;12.30;99.90;;;;;;4986489;28;20210;-68
2022/09/19 15:16:22;;;;;;;0.40;0.40;;;12.40;99.90;;;;;;4977073;28;20309;-68
2022/09/19 15:18:52;;;;;;;0.40;0.40;;;12.60;99.90;;;;;;4978979;28;20217;-68
2022/09/19 15:21:22;;;;;;;0.30;0.30;;;12.70;99.90;;;;;;4983863;28;20260;-67
2022/09/19 15:23:55;;;;;;;1.65;0.90;;;12.70;99.90;;;;;;4991569;28;20213;-67
2022/09/19 15:26:25;;;;;;;0.20;0.20;;;12.90;99.90;;;;;;4986343;28;20692;-67
2022/09/19 15:28:58;;;;;;;0.60;0.60;;;12.90;99.90;;;;;;4985799;28;20461;-68
2022/09/19 15:31:28;;;;;;;1.88;0.75;;;13.00;99.90;;;;;;4989913;28;20248;-68
2022/09/19 15:34:01;;;;;;;0.38;0.38;;;13.10;99.90;;;;;;4992175;28;20213;-67
2022/09/19 15:36:29;;;;;;;2.33;0.40;;;13.20;99.90;;;;;;4991024;28;20201;-68
2022/09/19 15:38:58;;;;;;;0.80;0.80;;;13.20;99.90;;;;;;4989232;28;20206;-67
2022/09/19 15:41:28;;;;;;;6.07;0.63;;;13.30;99.90;;;;;;4984107;28;20273;-68
2022/09/19 15:43:57;;;;;;;0.50;0.50;;;13.30;99.90;;;;;;4993740;28;20232;-68
2022/09/19 15:46:45;;;;;;;0.93;0.93;;;13.40;99.90;;;;;;4987538;28;20470;-69
2022/09/19 15:49:26;;;;;;;0.38;0.38;;;13.40;99.90;;;;;;4991403;28;20496;-70
2022/09/19 15:51:56;;;;;;;1.20;1.00;;;13.40;99.90;;;;;;4984681;28;20230;-68
2022/09/19 15:54:28;;;;;;;0.50;0.47;;;13.40;99.90;;;;;;4984818;28;20462;-67
2022/09/19 15:56:57;;;;;;;5.20;0.60;;;13.40;99.90;;;;;;4980326;28;20472;-67
2022/09/19 15:59:27;;;;;;;0.80;0.80;;;13.40;99.90;;;;;;4986511;28;20472;-68
2022/09/19 16:02:04;;;;;;;1.23;1.23;;;13.40;99.90;;;;;;4980109;28;20497;-68
2022/09/19 16:04:31;;;;;;;1.37;0.87;;;13.40;99.90;;;;;;4985029;28;20217;-69
2022/09/19 16:10:09;;;;;;;0.93;0.43;;;13.50;99.90;;;;;;4990848;28;20977;-68
2022/09/19 16:12:53;;;;;;;0.40;0.40;;;13.50;99.90;;;;;;4992285;28;20564;-69
2022/09/19 16:15:32;;;;;;;0.77;0.77;;;13.50;99.90;;;;;;4983884;28;20489;-69
2022/09/19 16:18:33;;;;;;;1.43;1.13;;;13.50;99.90;;;;;;4982270;28;20495;-68
2022/09/19 16:21:08;;;;;;;0.40;0.40;;;13.50;99.90;;;;;;4940142;29;20976;-69
2022/09/19 16:23:42;;;;;;;11.10;8.82;;;13.50;99.90;;;;;;4975042;28;20213;-67
2022/09/19 16:26:15;;;;;;;1.47;1.47;;;13.50;99.90;;;;;;4981777;28;20210;-67
2022/09/19 16:28:44;;;;;;;0.50;0.50;;;13.50;99.90;;;;;;4982771;28;20464;-68
2022/09/19 16:31:36;;;;;;;0.77;0.77;;;13.50;99.90;;;;;;4980340;28;20265;-68
2022/09/19 16:34:08;;;;;;;2.60;2.40;;;13.40;99.90;;;;;;4983548;28;20969;-68
2022/09/19 16:36:43;;;;;;;4.10;1.43;;;13.40;99.90;;;;;;4987692;28;20317;-68
2022/09/19 16:39:18;;;;;;;2.77;0.60;;;13.40;99.90;;;;;;4981598;28;20556;-67
2022/09/19 16:42:22;;;;;;;1.30;0.73;;;13.30;99.90;;;;;;4983364;28;20977;-68
2022/09/19 16:44:54;;;;;;;2.77;0.87;;;13.30;99.90;;;;;;4984313;28;20869;-69
2022/09/19 16:47:30;;;;;;;1.23;1.15;;;13.10;99.90;;;;;;4982451;28;20464;-68
2022/09/19 16:50:07;;;;;;;2.35;1.90;;;13.00;99.90;;;;;;4990674;28;20214;-68
2022/09/19 16:52:47;;;;;;;0.60;0.60;;;13.00;99.90;;;;;;4988533;28;20232;-68
2022/09/19 16:55:40;;;;;;;0.30;0.25;;;12.90;99.90;;;;;;4987266;28;20609;-68
2022/09/19 16:58:15;;;;;;;0.50;0.50;;;12.80;99.90;;;;;;4981806;28;20283;-68
2022/09/19 17:00:49;;;;;;;0.30;0.30;;;12.80;99.90;;;;;;4985655;28;20292;-68
2022/09/19 17:03:27;;;;;;;0.40;0.40;;;12.80;99.90;;;;;;4987226;28;20248;-68
2022/09/19 17:06:09;;;;;;;0.20;0.20;;;12.70;99.90;;;;;;4983021;28;20208;-68
2022/09/19 17:08:46;;;;;;;0.30;0.30;;;12.60;99.90;;;;;;4986309;28;20271;-68
2022/09/19 17:11:21;;;;;;;0.30;0.30;;;12.50;99.90;;;;;;4977717;28;20225;-67
2022/09/19 17:14:23;;;;;;;;;;;;;;;;;;;;;
2022/09/19 17:16:50;;;;;;;0.40;0.40;;;12.40;99.90;;;;;;4979059;28;20245;-68
2022/09/19 17:19:26;;;;;;;0.52;0.52;;;12.30;99.90;;;;;;4973232;28;20219;-68
2022/09/19 17:21:54;;;;;;;0.30;0.30;;;12.20;99.90;;;;;;4985782;28;20598;-68
2022/09/19 17:24:22;;;;;;;0.20;0.20;;;12.20;99.90;;;;;;4973300;28;20212;-69
2022/09/19 17:26:51;;;;;;;0.30;0.20;;;12.10;99.90;;;;;;4981038;28;20207;-68
2022/09/19 17:29:20;;;;;;;0.82;0.82;;;12.00;99.90;;;;;;4983964;28;20288;-69
2022/09/19 17:31:48;;;;;;;1.00;1.00;;;12.00;99.90;;;;;;4979722;28;20237;-68
2022/09/19 17:34:18;;;;;;;0.85;0.50;;;11.90;99.90;;;;;;4982637;28;20204;-68
2022/09/19 17:36:46;;;;;;;0.75;0.75;;;11.90;99.90;;;;;;4978855;28;20256;-68